Time;durP1;ratioP1;P1;durP2;ratioP2;P2;SDS_P1;SDS_P2;PMS_P1;PMS_P2;Temp;Humidity;BMP_temperature;BMP_pressure;BME280_temperature;BME280_humidity;BME280_pressure;Samples;Min_cycle;Max_cycle;Signal;HPM_P1;HPM_P2
2022/07/22 00:01:24;;;;;;;4.35;3.95;;;21.40;65.50;;;;;;912793;152;27386;-77
2022/07/22 00:03:51;;;;;;;4.30;3.62;;;21.40;65.60;;;;;;916005;153;27834;-77
2022/07/22 00:06:17;;;;;;;4.53;4.12;;;21.30;65.70;;;;;;913076;152;27379;-77
2022/07/22 00:08:44;;;;;;;4.30;3.90;;;21.30;65.80;;;;;;913370;153;27422;-77
2022/07/22 00:11:11;;;;;;;4.62;4.33;;;21.30;66.00;;;;;;913573;153;27417;-77
2022/07/22 00:13:37;;;;;;;4.58;3.65;;;21.20;66.10;;;;;;914676;153;27431;-77
2022/07/22 00:16:04;;;;;;;3.83;3.52;;;21.20;66.20;;;;;;914664;152;27370;-77
2022/07/22 00:18:30;;;;;;;3.77;3.47;;;21.20;66.40;;;;;;913258;152;27361;-77
2022/07/22 00:20:57;;;;;;;4.42;4.03;;;21.20;66.50;;;;;;912596;152;27368;-77
2022/07/22 00:23:24;;;;;;;4.22;3.62;;;21.10;66.70;;;;;;935645;151;27404;-77
2022/07/22 00:25:50;;;;;;;4.00;3.70;;;21.10;66.80;;;;;;936912;151;27385;-77
2022/07/22 00:28:17;;;;;;;4.67;4.15;;;21.10;67.10;;;;;;938140;151;27340;-77
2022/07/22 00:30:43;;;;;;;4.05;3.75;;;21.00;66.60;;;;;;937277;151;27259;-77
2022/07/22 00:33:10;;;;;;;3.67;3.37;;;21.00;67.40;;;;;;937842;151;27350;-77
2022/07/22 00:35:36;;;;;;;4.37;4.08;;;20.90;67.40;;;;;;939144;151;27342;-77
2022/07/22 00:38:03;;;;;;;4.00;3.67;;;20.90;67.70;;;;;;937963;151;27344;-77
2022/07/22 00:40:30;;;;;;;3.92;3.52;;;20.90;67.80;;;;;;938600;151;27392;-77
2022/07/22 00:42:56;;;;;;;4.35;3.95;;;20.80;68.00;;;;;;937787;151;27340;-77
2022/07/22 00:45:23;;;;;;;4.33;3.77;;;20.80;68.10;;;;;;938416;151;27291;-78
2022/07/22 00:47:49;;;;;;;3.92;3.37;;;20.80;68.30;;;;;;938313;151;27824;-77
2022/07/22 00:50:19;;;;;;;4.08;3.67;;;20.70;68.40;;;;;;939636;151;27503;-77
2022/07/22 00:52:43;;;;;;;3.92;3.62;;;20.60;68.50;;;;;;938518;151;27393;-77
2022/07/22 00:55:09;;;;;;;4.00;3.70;;;20.60;68.60;;;;;;937386;151;27412;-77
2022/07/22 00:57:36;;;;;;;3.90;3.60;;;20.50;68.90;;;;;;937881;151;27710;-77
2022/07/22 01:00:02;;;;;;;3.47;3.17;;;20.50;69.10;;;;;;938702;151;27350;-78
2022/07/22 01:02:29;;;;;;;4.20;3.65;;;20.50;69.40;;;;;;938957;151;27389;-77
2022/07/22 01:04:56;;;;;;;4.25;3.85;;;20.40;69.40;;;;;;938816;151;27372;-77
2022/07/22 01:07:22;;;;;;;3.75;3.37;;;20.40;69.60;;;;;;937398;151;27344;-77
2022/07/22 01:09:49;;;;;;;4.80;4.42;;;20.30;69.90;;;;;;939346;151;27435;-78
2022/07/22 01:12:15;;;;;;;7.00;4.10;;;20.30;70.20;;;;;;938353;151;27403;-77
2022/07/22 01:14:42;;;;;;;4.75;4.35;;;20.20;70.30;;;;;;939257;151;27890;-77
2022/07/22 01:17:09;;;;;;;3.87;3.58;;;20.20;70.50;;;;;;937819;151;27353;-77
2022/07/22 01:19:35;;;;;;;4.50;4.10;;;20.20;70.70;;;;;;938664;151;27499;-77
2022/07/22 01:24:23;;;;;;;4.83;4.30;;;20.20;71.00;;;;;;973310;145;37450;-78
2022/07/22 01:26:49;;;;;;;4.60;3.90;;;20.10;71.40;;;;;;960354;148;27295;-77
2022/07/22 01:29:16;;;;;;;4.12;3.65;;;20.10;71.60;;;;;;960965;148;27738;-77
2022/07/22 01:31:43;;;;;;;4.20;3.87;;;20.10;71.60;;;;;;961397;148;27659;-77
2022/07/22 01:34:09;;;;;;;5.33;3.90;;;20.10;71.70;;;;;;960728;148;27778;-77
2022/07/22 01:36:36;;;;;;;4.33;3.95;;;20.10;71.90;;;;;;960576;147;27319;-77
2022/07/22 01:39:02;;;;;;;4.62;4.17;;;20.00;71.90;;;;;;960680;148;27236;-77
2022/07/22 01:41:29;;;;;;;4.08;3.77;;;20.00;72.20;;;;;;960978;148;27424;-77
2022/07/22 01:43:55;;;;;;;3.90;3.60;;;19.90;72.30;;;;;;961325;149;27276;-77
2022/07/22 01:46:23;;;;;;;4.25;3.95;;;19.90;72.70;;;;;;960531;148;27315;-77
2022/07/22 01:48:49;;;;;;;4.42;3.87;;;19.80;72.80;;;;;;960625;148;27411;-77
2022/07/22 01:51:15;;;;;;;4.37;3.98;;;19.80;73.00;;;;;;957254;148;27414;-78
2022/07/22 01:53:42;;;;;;;4.30;4.00;;;19.80;73.30;;;;;;944586;149;27262;-77
2022/07/22 01:56:08;;;;;;;4.17;3.87;;;19.70;73.50;;;;;;944780;149;27446;-77
2022/07/22 01:58:35;;;;;;;4.83;4.40;;;19.70;73.80;;;;;;944430;149;27325;-78
2022/07/22 02:01:02;;;;;;;6.60;4.50;;;19.70;74.00;;;;;;944228;149;27353;-77
2022/07/22 02:03:28;;;;;;;4.50;4.10;;;19.60;74.10;;;;;;944800;149;27729;-76
2022/07/22 02:05:55;;;;;;;4.03;3.72;;;19.60;74.40;;;;;;943878;149;27281;-77
2022/07/22 02:08:21;;;;;;;4.50;4.10;;;19.50;74.50;;;;;;943846;149;27353;-78
2022/07/22 02:10:48;;;;;;;4.30;4.00;;;19.50;74.70;;;;;;944831;149;27430;-77
2022/07/22 02:13:15;;;;;;;5.70;4.15;;;19.50;75.00;;;;;;944430;149;27357;-78
2022/07/22 02:15:41;;;;;;;4.70;4.10;;;19.50;75.20;;;;;;945271;149;27261;-77
2022/07/22 02:18:11;;;;;;;4.20;3.83;;;19.50;75.40;;;;;;944822;149;27300;-77
2022/07/22 02:20:37;;;;;;;5.03;3.77;;;19.50;75.60;;;;;;944567;149;27348;-78
2022/07/22 02:23:04;;;;;;;3.87;3.58;;;19.50;75.90;;;;;;945258;149;27308;-78
2022/07/22 02:25:30;;;;;;;3.87;3.58;;;19.50;75.50;;;;;;944555;149;27368;-77
2022/07/22 02:27:57;;;;;;;4.35;3.95;;;19.40;76.10;;;;;;943611;149;27313;-77
2022/07/22 02:30:24;;;;;;;4.00;3.70;;;19.40;76.40;;;;;;943447;149;27289;-77
2022/07/22 02:32:50;;;;;;;3.98;3.67;;;19.40;76.70;;;;;;944288;149;27313;-77
2022/07/22 02:35:17;;;;;;;3.87;3.55;;;19.40;76.80;;;;;;943369;149;27303;-77
2022/07/22 02:37:43;;;;;;;4.10;3.75;;;19.40;76.90;;;;;;940899;151;27356;-77
2022/07/22 02:40:10;;;;;;;3.12;2.92;;;19.40;77.30;;;;;;935982;151;27361;-76
2022/07/22 02:42:37;;;;;;;3.83;3.50;;;19.40;78.30;;;;;;951822;148;27314;-76
2022/07/22 02:45:03;;;;;;;3.75;3.42;;;19.40;77.60;;;;;;950748;148;27332;-77
2022/07/22 02:47:30;;;;;;;5.65;4.03;;;19.30;77.80;;;;;;952735;148;27429;-77
2022/07/22 02:49:56;;;;;;;3.72;3.42;;;19.30;78.00;;;;;;952951;148;27350;-77
2022/07/22 02:52:23;;;;;;;3.85;3.40;;;19.30;78.20;;;;;;949135;148;27354;-77
2022/07/22 02:54:49;;;;;;;4.20;3.90;;;19.30;78.20;;;;;;947798;148;27419;-77
2022/07/22 02:57:16;;;;;;;4.35;3.67;;;19.30;78.30;;;;;;947986;148;27428;-77
2022/07/22 02:59:43;;;;;;;3.72;3.42;;;19.30;78.50;;;;;;947052;149;27253;-77
2022/07/22 03:02:09;;;;;;;4.30;3.37;;;19.20;78.60;;;;;;940573;151;27270;-77
2022/07/22 03:04:36;;;;;;;4.25;3.85;;;19.20;78.80;;;;;;939200;151;27360;-77
2022/07/22 03:07:02;;;;;;;5.87;4.60;;;19.10;79.00;;;;;;929566;151;27379;-77
2022/07/22 03:09:29;;;;;;;5.35;4.85;;;19.10;79.30;;;;;;927833;152;27396;-77
2022/07/22 03:11:56;;;;;;;4.95;4.55;;;19.10;79.50;;;;;;950880;149;27411;-77
2022/07/22 03:14:22;;;;;;;5.10;4.70;;;19.00;79.60;;;;;;952626;148;27304;-76
2022/07/22 03:16:49;;;;;;;4.97;4.47;;;19.00;79.80;;;;;;953065;148;27348;-76
2022/07/22 03:19:15;;;;;;;5.20;4.75;;;19.00;80.10;;;;;;951795;148;27361;-77
2022/07/22 03:21:42;;;;;;;4.15;3.87;;;18.90;80.30;;;;;;952444;148;27280;-76
2022/07/22 03:24:09;;;;;;;4.30;4.00;;;18.90;80.60;;;;;;949340;148;27419;-77
2022/07/22 03:26:35;;;;;;;4.20;3.90;;;18.90;80.90;;;;;;918612;153;27430;-77
2022/07/22 03:29:02;;;;;;;4.62;3.70;;;18.80;81.20;;;;;;918385;153;27384;-77
2022/07/22 03:31:28;;;;;;;4.37;4.08;;;18.80;81.70;;;;;;932098;152;27374;-77
2022/07/22 03:33:55;;;;;;;4.42;4.12;;;18.80;82.10;;;;;;934252;152;27362;-77
2022/07/22 03:36:21;;;;;;;4.50;4.10;;;18.80;82.60;;;;;;933309;152;27429;-77
2022/07/22 03:38:48;;;;;;;4.20;3.90;;;18.80;82.60;;;;;;918232;153;27314;-77
2022/07/22 03:41:15;;;;;;;4.90;3.77;;;18.80;82.90;;;;;;918199;152;27349;-77
2022/07/22 03:43:41;;;;;;;4.30;3.85;;;18.80;83.10;;;;;;919423;153;27447;-77
2022/07/22 03:46:08;;;;;;;4.37;3.90;;;18.70;83.30;;;;;;923388;152;27855;-77
2022/07/22 03:48:34;;;;;;;4.65;4.25;;;18.70;83.40;;;;;;937782;149;27321;-76
2022/07/22 03:51:01;;;;;;;4.87;4.30;;;18.70;83.50;;;;;;918253;153;27416;-76
2022/07/22 03:53:28;;;;;;;4.92;4.55;;;18.70;83.40;;;;;;918048;153;27358;-76
2022/07/22 03:55:54;;;;;;;4.15;3.85;;;18.70;83.40;;;;;;918817;153;27385;-76
2022/07/22 03:58:21;;;;;;;5.53;4.40;;;18.60;83.60;;;;;;916017;153;28774;-76
2022/07/22 04:00:47;;;;;;;4.62;4.22;;;18.60;83.90;;;;;;918690;153;27350;-76
2022/07/22 04:03:14;;;;;;;4.65;4.20;;;18.60;84.10;;;;;;917805;153;27371;-76
2022/07/22 04:05:41;;;;;;;4.53;4.10;;;18.60;84.50;;;;;;918093;153;27374;-76
2022/07/22 04:08:07;;;;;;;5.85;4.17;;;18.60;84.80;;;;;;918572;153;27387;-76
2022/07/22 04:10:34;;;;;;;7.78;4.72;;;18.50;85.30;;;;;;917673;153;27385;-76
2022/07/22 04:13:01;;;;;;;4.53;4.12;;;18.50;85.60;;;;;;917960;153;27364;-76
2022/07/22 04:15:27;;;;;;;3.95;3.65;;;18.50;86.10;;;;;;917918;153;27344;-76
2022/07/22 04:17:54;;;;;;;4.78;4.37;;;18.50;86.40;;;;;;918139;153;27333;-76
2022/07/22 04:20:20;;;;;;;3.83;3.52;;;18.50;86.90;;;;;;918345;153;27360;-76
2022/07/22 04:22:47;;;;;;;3.87;3.47;;;18.60;87.50;;;;;;917111;153;27845;-76
2022/07/22 04:25:14;;;;;;;3.87;3.58;;;18.60;87.80;;;;;;923113;152;27505;-76
2022/07/22 04:27:40;;;;;;;4.33;3.98;;;18.60;88.10;;;;;;927950;152;27313;-76
2022/07/22 04:30:07;;;;;;;4.37;3.98;;;18.70;88.70;;;;;;928167;152;27379;-76
2022/07/22 04:32:33;;;;;;;4.65;4.30;;;18.70;89.10;;;;;;950751;148;27304;-76
2022/07/22 04:35:00;;;;;;;4.35;4.00;;;18.80;89.60;;;;;;951627;148;27307;-76
2022/07/22 04:37:26;;;;;;;10.85;4.37;;;18.90;89.90;;;;;;925336;151;27373;-76
2022/07/22 04:39:53;;;;;;;7.15;4.85;;;18.90;89.90;;;;;;942285;151;27374;-76
2022/07/22 04:42:20;;;;;;;4.17;3.80;;;19.00;90.00;;;;;;941941;151;27256;-76
2022/07/22 04:44:47;;;;;;;5.45;4.10;;;19.10;90.10;;;;;;938448;151;27317;-76
2022/07/22 04:47:13;;;;;;;6.95;3.42;;;19.20;90.20;;;;;;939923;151;27317;-76
2022/07/22 04:49:39;;;;;;;4.65;4.25;;;19.30;90.30;;;;;;940299;151;27364;-76
2022/07/22 04:52:06;;;;;;;5.50;4.42;;;19.40;90.50;;;;;;943264;148;27496;-76
2022/07/22 04:54:33;;;;;;;4.55;4.00;;;19.60;90.70;;;;;;942275;151;27468;-76
2022/07/22 04:56:59;;;;;;;4.50;4.03;;;19.70;90.70;;;;;;940382;151;27384;-76
2022/07/22 04:59:26;;;;;;;4.55;4.15;;;19.90;90.50;;;;;;936363;151;27313;-76
2022/07/22 05:01:52;;;;;;;4.85;4.45;;;20.10;90.20;;;;;;939328;150;27288;-76
2022/07/22 05:04:19;;;;;;;6.20;5.55;;;20.20;89.90;;;;;;929887;151;27480;-76
2022/07/22 05:06:45;;;;;;;8.05;6.50;;;20.40;89.10;;;;;;929506;151;27362;-76
2022/07/22 05:09:12;;;;;;;5.08;4.67;;;20.50;89.50;;;;;;934716;151;27363;-76
2022/07/22 05:11:39;;;;;;;6.00;4.97;;;20.70;90.00;;;;;;951281;149;27827;-76
2022/07/22 05:14:05;;;;;;;5.67;5.17;;;20.90;89.80;;;;;;953096;149;27400;-76
2022/07/22 05:16:32;;;;;;;4.92;4.37;;;21.10;90.00;;;;;;952640;148;27351;-76
2022/07/22 05:18:58;;;;;;;4.75;4.33;;;21.40;90.30;;;;;;951853;149;27806;-76
2022/07/22 05:21:25;;;;;;;4.78;4.37;;;21.70;90.40;;;;;;951525;149;27388;-76
2022/07/22 05:23:52;;;;;;;4.78;4.42;;;22.10;90.10;;;;;;953298;149;27378;-76
2022/07/22 05:26:18;;;;;;;5.22;4.67;;;22.50;88.90;;;;;;944505;149;27303;-76
2022/07/22 05:28:45;;;;;;;4.95;4.55;;;22.90;86.40;;;;;;940081;149;27363;-76
2022/07/22 05:31:11;;;;;;;5.25;4.42;;;23.30;84.90;;;;;;940842;149;27838;-76
2022/07/22 05:33:38;;;;;;;4.67;4.05;;;23.60;84.90;;;;;;933933;152;27314;-76
2022/07/22 05:36:05;;;;;;;4.62;4.22;;;24.10;86.00;;;;;;932735;152;27332;-76
2022/07/22 05:38:34;;;;;;;3.95;3.65;;;24.70;86.70;;;;;;934598;152;27347;-76
2022/07/22 05:41:01;;;;;;;5.10;3.70;;;25.40;85.60;;;;;;932192;152;27375;-76
2022/07/22 05:43:27;;;;;;;4.28;3.83;;;26.20;83.70;;;;;;934435;152;27358;-77
2022/07/22 05:45:54;;;;;;;4.10;3.80;;;26.90;80.20;;;;;;930834;152;27512;-77
2022/07/22 05:48:20;;;;;;;4.12;3.83;;;27.80;76.00;;;;;;933469;152;27376;-77
2022/07/22 05:50:50;;;;;;;3.98;3.67;;;28.40;73.00;;;;;;932998;152;27296;-77
2022/07/22 05:53:13;;;;;;;3.65;3.35;;;29.10;70.70;;;;;;933143;152;27335;-77
2022/07/22 05:55:40;;;;;;;4.47;3.42;;;29.70;69.30;;;;;;934188;152;27383;-77
2022/07/22 05:58:07;;;;;;;4.35;3.95;;;30.30;67.40;;;;;;934539;152;27358;-77
2022/07/22 06:00:33;;;;;;;3.77;3.45;;;30.80;65.50;;;;;;934183;152;27261;-77
2022/07/22 06:03:00;;;;;;;3.15;2.90;;;31.40;63.30;;;;;;916511;152;27327;-77
2022/07/22 06:05:26;;;;;;;3.10;2.90;;;31.90;61.00;;;;;;939368;149;27412;-77
2022/07/22 06:07:53;;;;;;;3.85;3.25;;;32.30;59.30;;;;;;940506;149;27375;-77
2022/07/22 06:10:20;;;;;;;2.90;2.70;;;32.60;58.00;;;;;;917830;153;27456;-77
2022/07/22 06:12:46;;;;;;;5.53;2.65;;;32.70;56.80;;;;;;914886;153;27688;-77
2022/07/22 06:15:13;;;;;;;3.10;2.90;;;32.80;55.90;;;;;;916902;153;27339;-77
2022/07/22 06:17:39;;;;;;;3.70;3.40;;;32.70;55.10;;;;;;917008;153;27289;-77
2022/07/22 06:20:06;;;;;;;3.50;3.20;;;32.70;54.20;;;;;;917538;153;27402;-77
2022/07/22 06:22:33;;;;;;;3.12;2.83;;;32.50;53.90;;;;;;904354;153;27394;-78
2022/07/22 06:24:59;;;;;;;3.10;2.90;;;32.30;53.90;;;;;;936850;151;27359;-78
2022/07/22 06:27:26;;;;;;;3.37;3.10;;;32.20;53.80;;;;;;935074;151;27354;-77
2022/07/22 06:29:52;;;;;;;3.20;2.90;;;32.00;53.50;;;;;;936501;151;27539;-78
2022/07/22 06:32:19;;;;;;;3.42;3.20;;;31.80;53.30;;;;;;937270;151;27690;-77
2022/07/22 06:34:45;;;;;;;2.95;2.75;;;31.60;53.20;;;;;;938353;151;27452;-77
2022/07/22 06:37:12;;;;;;;3.10;2.90;;;31.40;53.90;;;;;;935877;151;27436;-78
2022/07/22 06:39:39;;;;;;;3.15;2.92;;;31.50;54.70;;;;;;936597;151;27344;-78
2022/07/22 06:42:05;;;;;;;3.10;2.90;;;31.70;55.80;;;;;;935748;151;27327;-78
2022/07/22 06:44:32;;;;;;;3.17;2.80;;;32.10;56.10;;;;;;935993;151;27363;-78
2022/07/22 06:46:58;;;;;;;3.30;2.95;;;32.70;56.00;;;;;;937772;151;27469;-77
2022/07/22 06:49:25;;;;;;;3.17;2.92;;;33.40;55.50;;;;;;937987;151;26334;-78
2022/07/22 06:51:52;;;;;;;2.90;2.70;;;34.20;54.10;;;;;;936127;150;27384;-78
2022/07/22 06:54:18;;;;;;;2.92;2.47;;;34.80;53.00;;;;;;936546;151;26244;-78
2022/07/22 06:56:45;;;;;;;2.40;2.30;;;35.40;52.00;;;;;;937711;151;26174;-78
2022/07/22 06:59:11;;;;;;;2.35;2.25;;;35.90;51.40;;;;;;935635;151;26275;-78
2022/07/22 07:01:38;;;;;;;2.60;2.40;;;36.40;50.70;;;;;;936766;151;26277;-79
2022/07/22 07:04:05;;;;;;;2.67;2.47;;;36.90;49.70;;;;;;937606;151;26280;-78
2022/07/22 07:06:31;;;;;;;2.05;1.95;;;37.40;48.90;;;;;;937200;151;26307;-78
2022/07/22 07:08:58;;;;;;;2.17;1.90;;;37.90;48.30;;;;;;937199;151;27464;-78
2022/07/22 07:11:24;;;;;;;1.87;1.77;;;38.30;47.30;;;;;;937251;151;27354;-78
2022/07/22 07:13:51;;;;;;;1.90;1.80;;;38.70;46.20;;;;;;936948;151;26342;-78
2022/07/22 07:16:18;;;;;;;2.08;1.98;;;39.00;44.80;;;;;;936862;151;26292;-78
2022/07/22 07:18:44;;;;;;;1.72;1.62;;;39.30;44.60;;;;;;937870;151;26367;-78
2022/07/22 07:21:11;;;;;;;1.80;1.70;;;39.50;44.10;;;;;;936263;151;26367;-78
2022/07/22 07:23:37;;;;;;;1.60;1.50;;;39.70;43.50;;;;;;936277;151;26345;-78
2022/07/22 07:26:04;;;;;;;1.90;1.80;;;39.90;43.10;;;;;;937897;151;26307;-79
2022/07/22 07:28:31;;;;;;;1.90;1.80;;;40.10;41.90;;;;;;936869;151;26277;-79
2022/07/22 07:30:57;;;;;;;2.00;1.90;;;40.20;42.00;;;;;;936943;151;26335;-79
2022/07/22 07:33:24;;;;;;;1.80;1.70;;;40.40;41.90;;;;;;937718;151;26343;-78
2022/07/22 07:35:50;;;;;;;2.35;1.80;;;40.60;41.60;;;;;;937453;151;26237;-78
2022/07/22 07:38:17;;;;;;;1.80;1.70;;;40.80;40.90;;;;;;937414;151;26348;-78
2022/07/22 07:40:43;;;;;;;1.98;1.87;;;41.10;40.80;;;;;;937187;151;26288;-79
2022/07/22 07:43:10;;;;;;;1.80;1.70;;;41.30;40.40;;;;;;938415;151;28626;-79
2022/07/22 07:45:37;;;;;;;1.90;1.80;;;41.60;40.20;;;;;;935650;151;26217;-78
2022/07/22 07:48:03;;;;;;;1.80;1.70;;;41.90;39.40;;;;;;937179;151;26260;-78
2022/07/22 07:50:30;;;;;;;1.75;1.65;;;42.10;39.20;;;;;;936361;151;26295;-78
2022/07/22 07:52:56;;;;;;;1.47;1.47;;;42.40;38.50;;;;;;936208;151;26445;-79
2022/07/22 07:55:23;;;;;;;2.20;1.90;;;42.60;38.20;;;;;;936924;151;26268;-79
2022/07/22 07:57:50;;;;;;;2.10;2.00;;;42.90;37.90;;;;;;935964;151;26397;-79
2022/07/22 08:00:17;;;;;;;1.90;1.80;;;43.10;36.60;;;;;;935845;151;26287;-78
2022/07/22 08:02:43;;;;;;;1.62;1.47;;;43.30;36.40;;;;;;936318;151;26205;-78
2022/07/22 08:05:09;;;;;;;1.98;1.87;;;43.50;36.20;;;;;;936953;151;26473;-76
2022/07/22 08:07:36;;;;;;;2.42;1.90;;;43.60;35.90;;;;;;937206;150;26697;-77
2022/07/22 08:10:02;;;;;;;1.72;1.62;;;43.70;35.50;;;;;;936940;151;26256;-76
2022/07/22 08:12:29;;;;;;;1.60;1.50;;;43.80;35.00;;;;;;935473;151;26365;-76
2022/07/22 08:14:56;;;;;;;1.98;1.72;;;43.90;34.70;;;;;;937634;151;26245;-76
2022/07/22 08:17:22;;;;;;;1.60;1.50;;;44.00;34.70;;;;;;937608;151;26226;-76
2022/07/22 08:19:49;;;;;;;1.90;1.72;;;44.20;34.70;;;;;;938280;151;26277;-78
2022/07/22 08:22:15;;;;;;;1.82;1.72;;;44.20;33.70;;;;;;937442;150;26344;-78
2022/07/22 08:24:42;;;;;;;1.70;1.62;;;44.30;33.10;;;;;;937520;151;26321;-78
2022/07/22 08:27:09;;;;;;;1.72;1.62;;;44.20;33.00;;;;;;936833;151;26261;-78
2022/07/22 08:29:35;;;;;;;1.60;1.50;;;44.20;33.00;;;;;;935997;151;26216;-78
2022/07/22 08:32:02;;;;;;;1.90;1.80;;;44.20;33.20;;;;;;937172;150;26306;-76
2022/07/22 08:34:28;;;;;;;1.60;1.50;;;44.20;33.10;;;;;;936752;151;26399;-78
2022/07/22 08:36:55;;;;;;;2.02;1.85;;;44.20;33.00;;;;;;935705;151;26264;-78
2022/07/22 08:39:22;;;;;;;2.72;1.95;;;44.40;33.00;;;;;;935411;151;26353;-78
2022/07/22 08:41:48;;;;;;;1.85;1.75;;;44.60;32.80;;;;;;936451;151;26236;-78
2022/07/22 08:44:15;;;;;;;1.87;1.77;;;44.90;32.70;;;;;;936954;151;26296;-76
2022/07/22 08:46:41;;;;;;;1.60;1.50;;;45.20;32.30;;;;;;938682;151;26369;-78
2022/07/22 08:49:08;;;;;;;1.90;1.50;;;45.50;32.00;;;;;;936601;151;26210;-78
2022/07/22 08:51:34;;;;;;;1.70;1.60;;;45.80;31.80;;;;;;936309;150;26392;-78
2022/07/22 08:54:01;;;;;;;1.72;1.62;;;46.20;31.50;;;;;;937525;151;26230;-78
2022/07/22 08:56:28;;;;;;;1.62;1.52;;;46.50;30.90;;;;;;938017;151;26278;-77
2022/07/22 08:58:54;;;;;;;1.80;1.70;;;46.80;30.30;;;;;;937804;151;26561;-78
2022/07/22 09:01:21;;;;;;;1.42;1.32;;;47.10;30.00;;;;;;937824;151;27558;-78
2022/07/22 09:03:51;;;;;;;2.05;1.77;;;47.20;29.80;;;;;;937072;151;26334;-78
2022/07/22 09:06:17;;;;;;;2.37;1.80;;;47.30;29.50;;;;;;937416;151;26353;-78
2022/07/22 09:08:59;;;;;;;1.82;1.72;;;47.40;29.30;;;;;;937190;151;26298;-76
2022/07/22 09:11:25;;;;;;;1.75;1.65;;;47.50;29.10;;;;;;937915;151;26871;-78
2022/07/22 09:13:52;;;;;;;1.67;1.57;;;47.50;28.60;;;;;;936735;151;26287;-78
2022/07/22 09:16:43;;;;;;;1.80;1.70;;;47.50;28.60;;;;;;937941;151;26292;-78
2022/07/22 09:19:09;;;;;;;1.70;1.60;;;47.40;28.30;;;;;;940009;149;26233;-77
2022/07/22 09:21:36;;;;;;;2.00;1.90;;;47.20;28.70;;;;;;940081;149;26230;-78
2022/07/22 09:24:02;;;;;;;1.77;1.67;;;47.00;28.10;;;;;;917567;153;26275;-78
2022/07/22 09:26:32;;;;;;;1.92;1.77;;;46.80;28.30;;;;;;917220;153;26320;-78
2022/07/22 09:28:58;;;;;;;2.15;1.95;;;46.60;28.30;;;;;;923922;152;26296;-78
2022/07/22 09:31:25;;;;;;;3.50;1.60;;;46.50;28.40;;;;;;951095;148;26192;-78
2022/07/22 09:33:53;;;;;;;1.80;1.70;;;46.30;28.50;;;;;;952925;149;26240;-77
2022/07/22 09:36:18;;;;;;;1.62;1.52;;;46.20;28.40;;;;;;952008;149;26264;-77
2022/07/22 09:38:45;;;;;;;1.95;1.85;;;46.10;28.50;;;;;;951958;149;26392;-78
2022/07/22 09:41:11;;;;;;;1.67;1.57;;;46.10;28.40;;;;;;951587;149;26393;-77
2022/07/22 09:43:38;;;;;;;1.87;1.77;;;46.00;28.40;;;;;;951508;149;26607;-78
2022/07/22 09:46:05;;;;;;;1.90;1.80;;;46.10;28.50;;;;;;951296;148;26712;-78
2022/07/22 09:48:31;;;;;;;2.25;1.90;;;46.30;28.60;;;;;;952691;148;26201;-77
2022/07/22 09:50:57;;;;;;;1.98;1.87;;;46.30;28.10;;;;;;953307;149;26398;-79
2022/07/22 09:53:24;;;;;;;1.90;1.80;;;46.40;27.80;;;;;;951638;148;26232;-78
2022/07/22 09:55:51;;;;;;;1.80;1.70;;;46.40;27.60;;;;;;928037;152;26642;-78
2022/07/22 09:58:17;;;;;;;2.00;1.90;;;46.30;27.50;;;;;;927616;152;26339;-77
2022/07/22 10:00:44;;;;;;;1.75;1.65;;;46.00;27.40;;;;;;928331;152;26713;-78
2022/07/22 10:03:16;;;;;;;1.80;1.70;;;45.80;27.60;;;;;;928177;152;26429;-76
2022/07/22 10:05:43;;;;;;;1.92;1.82;;;45.50;27.60;;;;;;944154;148;28225;-78
2022/07/22 10:08:10;;;;;;;1.70;1.60;;;45.20;27.70;;;;;;935182;151;26703;-78
2022/07/22 10:10:36;;;;;;;3.40;1.75;;;44.80;27.80;;;;;;934065;151;26701;-78
2022/07/22 10:13:03;;;;;;;1.80;1.70;;;44.50;27.90;;;;;;953692;148;26224;-78
2022/07/22 10:15:29;;;;;;;2.10;2.00;;;44.20;27.90;;;;;;929441;151;26310;-77
2022/07/22 10:17:56;;;;;;;2.00;1.80;;;43.80;27.90;;;;;;947757;148;26294;-78
2022/07/22 10:20:23;;;;;;;2.17;2.08;;;43.40;28.00;;;;;;947814;148;26345;-78
2022/07/22 10:22:52;;;;;;;2.33;2.12;;;43.00;28.10;;;;;;947940;148;27806;-77
2022/07/22 10:25:21;;;;;;;2.33;2.20;;;42.60;28.20;;;;;;948362;148;27422;-78
2022/07/22 10:28:05;;;;;;;3.33;2.00;;;42.20;28.30;;;;;;948223;148;26287;-79
2022/07/22 10:30:32;;;;;;;2.47;2.30;;;41.70;28.50;;;;;;947385;148;26320;-78
2022/07/22 10:33:02;;;;;;;2.60;2.40;;;41.10;28.50;;;;;;946332;148;26307;-77
2022/07/22 10:35:28;;;;;;;3.02;2.30;;;40.60;28.60;;;;;;927273;152;26292;-76
2022/07/22 10:37:54;;;;;;;2.70;2.10;;;40.10;28.90;;;;;;950479;148;27316;-78
2022/07/22 10:40:21;;;;;;;4.53;2.58;;;39.50;28.90;;;;;;934471;151;27304;-78
2022/07/22 10:43:08;;;;;;;5.72;2.52;;;39.10;29.20;;;;;;950593;149;27304;-79
2022/07/22 10:45:40;;;;;;;2.22;2.12;;;38.60;29.50;;;;;;952124;148;27317;-78
2022/07/22 10:48:09;;;;;;;2.40;2.20;;;38.00;29.80;;;;;;929268;152;27709;-78
2022/07/22 10:50:37;;;;;;;3.20;2.15;;;37.60;30.00;;;;;;934189;151;28590;-78
2022/07/22 10:53:02;;;;;;;2.05;1.95;;;37.20;30.30;;;;;;942186;149;27434;-78
2022/07/22 10:55:29;;;;;;;3.17;2.10;;;36.90;30.60;;;;;;948622;148;27326;-78
2022/07/22 10:57:56;;;;;;;3.10;2.20;;;36.50;31.10;;;;;;952255;148;27359;-78
2022/07/22 11:00:22;;;;;;;2.42;2.22;;;36.30;31.60;;;;;;952084;149;27344;-78
2022/07/22 11:02:49;;;;;;;2.58;2.17;;;36.10;31.70;;;;;;929546;151;27438;-78
2022/07/22 11:05:15;;;;;;;2.80;2.60;;;35.90;31.70;;;;;;935378;151;27370;-78
2022/07/22 11:07:45;;;;;;;2.17;2.08;;;35.70;31.70;;;;;;950548;148;27353;-76
2022/07/22 11:10:14;;;;;;;2.98;2.20;;;35.50;32.20;;;;;;935102;151;27354;-78
2022/07/22 11:12:41;;;;;;;2.58;2.37;;;35.30;32.40;;;;;;952331;148;27304;-78
2022/07/22 11:15:07;;;;;;;2.27;2.17;;;35.10;32.30;;;;;;951864;149;27383;-78
2022/07/22 11:17:37;;;;;;;3.05;2.17;;;34.90;32.50;;;;;;951549;148;27315;-77
2022/07/22 11:20:04;;;;;;;3.50;2.52;;;34.70;32.80;;;;;;951659;148;27360;-77
2022/07/22 11:22:30;;;;;;;2.60;2.40;;;34.60;33.00;;;;;;952048;148;27323;-78
2022/07/22 11:24:57;;;;;;;2.92;2.72;;;34.40;33.00;;;;;;951390;148;27336;-77
2022/07/22 11:27:24;;;;;;;2.60;2.40;;;34.30;33.10;;;;;;952246;148;27361;-78
2022/07/22 11:29:50;;;;;;;2.55;2.35;;;34.20;33.20;;;;;;954816;147;27851;-76
2022/07/22 11:32:16;;;;;;;4.92;2.70;;;34.00;33.20;;;;;;956284;147;27445;-77
2022/07/22 11:34:44;;;;;;;2.80;2.60;;;33.90;33.30;;;;;;941953;150;27353;-79
2022/07/22 11:37:09;;;;;;;2.60;2.40;;;33.80;33.70;;;;;;937569;150;27423;-77
2022/07/22 11:39:36;;;;;;;2.60;2.40;;;33.70;34.10;;;;;;942993;150;27363;-77
2022/07/22 11:42:02;;;;;;;2.65;2.45;;;33.70;34.40;;;;;;944687;149;27685;-77
2022/07/22 11:44:29;;;;;;;2.30;2.20;;;33.70;34.50;;;;;;957763;147;27351;-78
2022/07/22 11:46:59;;;;;;;3.60;2.33;;;33.70;34.80;;;;;;955099;147;27346;-78
2022/07/22 11:49:25;;;;;;;2.45;2.33;;;33.70;34.90;;;;;;958941;147;27439;-78
2022/07/22 11:51:52;;;;;;;2.50;2.30;;;33.70;34.80;;;;;;960161;147;27354;-76
2022/07/22 11:54:18;;;;;;;2.55;2.35;;;33.70;34.90;;;;;;959374;147;27689;-78
2022/07/22 11:56:45;;;;;;;2.37;2.17;;;33.70;34.70;;;;;;957570;147;28592;-77
2022/07/22 11:59:14;;;;;;;2.72;2.50;;;33.70;34.80;;;;;;958565;147;27299;-78
2022/07/22 12:01:41;;;;;;;3.55;2.58;;;33.70;34.70;;;;;;958494;147;27320;-77
2022/07/22 12:04:07;;;;;;;2.75;2.52;;;33.70;34.60;;;;;;959234;147;27316;-77
2022/07/22 12:06:37;;;;;;;2.75;2.55;;;33.60;34.40;;;;;;956361;147;27432;-76
2022/07/22 12:09:03;;;;;;;2.90;2.60;;;33.60;34.40;;;;;;955054;147;27405;-78
2022/07/22 12:11:30;;;;;;;2.65;2.30;;;33.50;34.40;;;;;;955243;147;27399;-78
2022/07/22 12:13:56;;;;;;;2.65;2.47;;;33.40;34.50;;;;;;955847;147;27416;-78
2022/07/22 12:16:29;;;;;;;3.33;2.55;;;33.40;34.60;;;;;;940518;150;27351;-77
2022/07/22 12:18:58;;;;;;;2.77;2.67;;;33.30;34.80;;;;;;940408;150;27472;-76
2022/07/22 12:21:28;;;;;;;2.90;2.70;;;33.30;35.00;;;;;;940647;150;27364;-78
2022/07/22 12:23:57;;;;;;;3.22;2.92;;;33.30;35.10;;;;;;955923;147;27328;-79
2022/07/22 12:26:43;;;;;;;2.95;2.75;;;33.20;34.90;;;;;;934156;151;27433;-78
2022/07/22 12:29:24;;;;;;;2.90;2.70;;;33.20;35.10;;;;;;955996;148;27377;-76
2022/07/22 12:31:56;;;;;;;2.83;2.60;;;33.10;35.00;;;;;;957062;147;27448;-79
2022/07/22 12:34:29;;;;;;;3.00;2.70;;;33.00;35.20;;;;;;934195;151;27344;-79
2022/07/22 12:36:56;;;;;;;2.80;2.47;;;33.00;35.40;;;;;;940024;150;27346;-78
2022/07/22 12:39:22;;;;;;;3.22;2.87;;;32.90;35.50;;;;;;957191;148;27306;-78
2022/07/22 12:41:52;;;;;;;3.00;2.70;;;32.90;35.80;;;;;;934565;151;27437;-78
2022/07/22 12:44:18;;;;;;;3.45;2.85;;;32.90;35.90;;;;;;937173;150;27469;-79
2022/07/22 12:46:45;;;;;;;3.12;2.87;;;32.90;36.10;;;;;;937542;150;27502;-79
2022/07/22 12:49:11;;;;;;;2.67;2.47;;;32.90;36.00;;;;;;937019;150;27297;-78